Time;durP1;ratioP1;P1;durP2;ratioP2;P2;SDS_P1;SDS_P2;PMS_P1;PMS_P2;Temp;Humidity;BMP_temperature;BMP_pressure;BME280_temperature;BME280_humidity;BME280_pressure;Samples;Min_cycle;Max_cycle;Signal;HPM_P1;HPM_P2
2020/12/09 00:01:50;;;;;;;66.68;30.70;;;3.50;95.60;;;;;;5034343;28;20025;-87
2020/12/09 00:04:16;;;;;;;68.68;32.28;;;3.50;95.60;;;;;;5034302;28;20478;-87
2020/12/09 00:06:42;;;;;;;59.72;29.98;;;3.50;95.60;;;;;;5034543;28;20056;-86
2020/12/09 00:09:10;;;;;;;64.03;30.38;;;3.50;95.60;;;;;;5046578;28;20060;-88
2020/12/09 00:11:36;;;;;;;58.58;29.83;;;3.50;95.90;;;;;;5036084;28;20132;-87
2020/12/09 00:14:02;;;;;;;55.28;30.00;;;3.60;95.70;;;;;;5036400;28;20049;-87
2020/12/09 00:16:27;;;;;;;53.78;28.38;;;3.60;95.60;;;;;;5033471;28;20060;-88
2020/12/09 00:18:53;;;;;;;57.40;29.73;;;3.60;95.60;;;;;;5033460;28;20057;-87
2020/12/09 00:21:20;;;;;;;68.80;32.45;;;3.60;95.60;;;;;;5028472;28;20045;-87
2020/12/09 00:23:46;;;;;;;68.93;31.83;;;3.60;95.60;;;;;;5033181;28;20025;-87
2020/12/09 00:26:15;;;;;;;56.67;28.98;;;3.60;95.50;;;;;;5031556;28;20032;-87
2020/12/09 00:28:41;;;;;;;63.92;30.73;;;3.60;95.50;;;;;;5020820;28;20030;-87
2020/12/09 00:31:06;;;;;;;56.75;28.08;;;3.60;95.50;;;;;;5019846;28;20026;-87
2020/12/09 00:33:32;;;;;;;57.50;28.38;;;3.60;95.60;;;;;;5022014;28;20021;-87
2020/12/09 00:35:57;;;;;;;69.57;30.70;;;3.60;95.60;;;;;;5031931;28;20053;-87
2020/12/09 00:38:24;;;;;;;70.53;30.27;;;3.60;95.60;;;;;;5035052;28;20148;-87
2020/12/09 00:40:49;;;;;;;56.35;29.15;;;3.60;95.60;;;;;;5026062;28;20511;-87
2020/12/09 00:43:15;;;;;;;56.00;27.50;;;3.60;95.60;;;;;;5033130;28;20124;-88
2020/12/09 00:45:40;;;;;;;58.00;29.42;;;3.60;95.60;;;;;;5031041;28;20034;-87
2020/12/09 00:48:06;;;;;;;58.47;28.20;;;3.60;95.50;;;;;;5031667;28;20073;-87
2020/12/09 00:50:31;;;;;;;48.20;26.13;;;3.60;95.60;;;;;;5030448;28;20061;-85
2020/12/09 00:52:57;;;;;;;58.85;27.77;;;3.60;95.60;;;;;;5026941;28;20041;-87
2020/12/09 00:55:23;;;;;;;52.95;27.60;;;3.60;95.60;;;;;;5031147;28;20037;-87
2020/12/09 00:57:49;;;;;;;56.33;29.00;;;3.50;95.50;;;;;;5027749;28;20048;-87
2020/12/09 01:00:14;;;;;;;56.63;30.48;;;3.50;95.50;;;;;;5032534;28;20386;-87
2020/12/09 01:02:40;;;;;;;55.92;29.42;;;3.50;95.50;;;;;;5026020;28;20037;-87
2020/12/09 01:05:09;;;;;;;59.78;29.13;;;3.50;95.50;;;;;;5031674;28;20044;-87
2020/12/09 01:07:35;;;;;;;61.17;29.08;;;3.50;95.60;;;;;;5032969;28;20025;-88
2020/12/09 01:10:01;;;;;;;52.90;27.83;;;3.50;95.60;;;;;;5025912;28;20038;-87
2020/12/09 01:12:26;;;;;;;59.20;29.35;;;3.50;95.50;;;;;;5022864;28;20044;-87
2020/12/09 01:14:52;;;;;;;57.75;30.08;;;3.50;95.50;;;;;;5030100;28;21590;-87
2020/12/09 01:17:17;;;;;;;63.30;30.33;;;3.40;95.50;;;;;;5030435;28;20091;-87
2020/12/09 01:19:43;;;;;;;55.78;28.80;;;3.40;95.60;;;;;;5031115;28;20091;-87
2020/12/09 01:22:08;;;;;;;55.50;29.35;;;3.40;95.60;;;;;;5030163;28;20028;-87
2020/12/09 01:24:34;;;;;;;60.67;30.73;;;3.40;95.60;;;;;;5032887;28;20026;-88
2020/12/09 01:27:00;;;;;;;59.97;28.90;;;3.40;95.60;;;;;;5046874;28;20033;-87
2020/12/09 01:29:26;;;;;;;58.85;30.70;;;3.40;95.70;;;;;;5033004;28;20482;-88
2020/12/09 01:32:02;;;;;;;68.95;30.23;;;3.40;95.60;;;;;;5017415;28;20478;-87
2020/12/09 01:34:28;;;;;;;72.68;33.35;;;3.40;95.50;;;;;;5028763;28;20469;-87
2020/12/09 01:36:54;;;;;;;74.53;34.33;;;3.40;95.60;;;;;;5030882;28;20042;-87
2020/12/09 01:39:20;;;;;;;71.55;35.97;;;3.40;95.60;;;;;;5014946;28;20026;-88
2020/12/09 01:41:47;;;;;;;64.95;32.72;;;3.40;95.70;;;;;;5022473;28;20022;-87
2020/12/09 01:44:12;;;;;;;64.85;31.98;;;3.40;95.70;;;;;;5029932;28;20034;-88
2020/12/09 01:46:39;;;;;;;54.25;28.73;;;3.40;96.00;;;;;;5032255;28;20079;-87
2020/12/09 01:49:04;;;;;;;54.63;29.05;;;3.40;95.70;;;;;;5023997;28;20025;-88
2020/12/09 01:51:30;;;;;;;54.97;28.17;;;3.40;95.70;;;;;;5032117;28;20021;-87
2020/12/09 01:53:59;;;;;;;59.45;30.60;;;3.40;95.60;;;;;;5022058;28;20037;-88
2020/12/09 01:56:25;;;;;;;59.42;30.63;;;3.40;95.70;;;;;;5028380;28;20212;-88
2020/12/09 01:58:52;;;;;;;69.20;31.48;;;3.40;95.70;;;;;;5025693;28;20494;-87
2020/12/09 02:01:18;;;;;;;60.65;31.38;;;3.50;95.70;;;;;;5028725;28;20471;-88
2020/12/09 02:03:46;;;;;;;65.55;33.13;;;3.40;95.70;;;;;;5024485;28;20080;-88
2020/12/09 02:06:12;;;;;;;60.17;31.25;;;3.50;95.80;;;;;;5025466;28;20112;-87
2020/12/09 02:08:37;;;;;;;58.75;30.63;;;3.50;95.80;;;;;;5032740;28;20026;-87
2020/12/09 02:11:04;;;;;;;65.00;30.70;;;3.50;95.80;;;;;;5030276;28;20040;-86
2020/12/09 02:13:31;;;;;;;58.38;30.05;;;3.50;95.70;;;;;;5038820;28;20070;-87
2020/12/09 02:16:00;;;;;;;57.75;30.10;;;3.50;95.70;;;;;;5024985;28;20116;-88
2020/12/09 02:18:27;;;;;;;69.85;33.55;;;3.50;95.70;;;;;;5022622;28;20160;-88
2020/12/09 02:20:53;;;;;;;64.32;32.38;;;3.50;95.70;;;;;;5020199;28;20050;-88
2020/12/09 02:23:18;;;;;;;62.53;31.63;;;3.50;95.70;;;;;;5026810;28;20122;-89
2020/12/09 02:25:45;;;;;;;60.65;29.50;;;3.50;95.70;;;;;;5027630;28;20033;-88
2020/12/09 02:28:12;;;;;;;66.30;33.17;;;3.60;95.70;;;;;;5028296;28;20021;-88
2020/12/09 02:30:37;;;;;;;69.53;33.35;;;3.60;95.70;;;;;;5035310;28;20033;-88
2020/12/09 02:33:03;;;;;;;77.07;34.75;;;3.50;95.70;;;;;;5021907;28;20029;-88
2020/12/09 02:35:28;;;;;;;70.35;35.30;;;3.60;95.70;;;;;;5029688;28;20033;-89
2020/12/09 02:37:54;;;;;;;72.00;34.75;;;3.60;95.70;;;;;;5024250;28;20071;-87
2020/12/09 02:40:23;;;;;;;75.90;35.60;;;3.60;95.70;;;;;;5032348;28;20047;-88
2020/12/09 02:42:49;;;;;;;67.72;32.60;;;3.60;95.70;;;;;;5031205;28;20064;-88
2020/12/09 02:45:15;;;;;;;61.35;31.27;;;3.60;95.70;;;;;;5025903;28;20120;-88
2020/12/09 02:47:41;;;;;;;63.58;32.17;;;3.60;95.70;;;;;;5031344;28;20030;-88
2020/12/09 02:50:07;;;;;;;58.63;30.10;;;3.60;95.60;;;;;;5028107;28;20033;-88
2020/12/09 02:52:32;;;;;;;63.08;33.00;;;3.60;95.60;;;;;;5028018;28;20033;-87
2020/12/09 02:54:57;;;;;;;67.68;31.50;;;3.60;95.70;;;;;;5032247;28;20409;-88
2020/12/09 02:57:23;;;;;;;68.18;33.28;;;3.60;95.60;;;;;;5026298;28;20049;-88
2020/12/09 02:59:49;;;;;;;75.68;36.72;;;3.60;95.70;;;;;;5034223;28;20025;-88
2020/12/09 03:02:14;;;;;;;72.32;35.28;;;3.60;95.70;;;;;;5035715;28;20061;-88
2020/12/09 03:04:40;;;;;;;63.63;33.25;;;3.50;95.70;;;;;;5027758;28;20076;-88
2020/12/09 03:07:05;;;;;;;68.47;33.20;;;3.60;95.70;;;;;;5032481;28;20029;-87
2020/12/09 03:09:31;;;;;;;63.08;33.40;;;3.60;95.70;;;;;;5035823;28;20390;-87
2020/12/09 03:11:56;;;;;;;67.47;34.42;;;3.60;95.70;;;;;;5035841;28;20104;-87
2020/12/09 03:14:22;;;;;;;62.75;31.48;;;3.60;95.70;;;;;;5027543;28;20179;-88
2020/12/09 03:16:47;;;;;;;63.45;31.40;;;3.50;95.70;;;;;;5029303;28;20022;-87
2020/12/09 03:19:13;;;;;;;63.22;31.55;;;3.50;95.60;;;;;;5035467;28;20033;-88
2020/12/09 03:21:42;;;;;;;71.50;34.05;;;3.50;95.60;;;;;;5016944;28;20030;-89
2020/12/09 03:24:11;;;;;;;65.18;32.55;;;3.50;95.70;;;;;;5030649;28;20068;-87
2020/12/09 03:26:37;;;;;;;68.75;34.38;;;3.50;95.70;;;;;;5033891;28;20854;-89
2020/12/09 03:29:03;;;;;;;64.88;33.90;;;3.50;95.70;;;;;;5031105;28;20030;-89
2020/12/09 03:31:29;;;;;;;68.43;34.72;;;3.50;95.70;;;;;;5024196;28;20025;-89
2020/12/09 03:33:54;;;;;;;70.28;33.78;;;3.50;95.70;;;;;;5033963;28;20072;-88
2020/12/09 03:36:20;;;;;;;71.07;35.42;;;3.50;95.70;;;;;;5022068;28;20038;-87
2020/12/09 03:38:45;;;;;;;76.65;36.08;;;3.50;95.70;;;;;;5033134;28;20022;-88
2020/12/09 03:41:11;;;;;;;69.93;34.13;;;3.50;95.70;;;;;;5033913;28;20040;-88
2020/12/09 03:43:36;;;;;;;72.10;35.17;;;3.50;95.70;;;;;;5035391;28;20042;-88
2020/12/09 03:46:02;;;;;;;71.70;36.15;;;3.50;95.70;;;;;;5034133;28;20033;-88
2020/12/09 03:48:28;;;;;;;65.75;32.45;;;3.50;95.70;;;;;;5038298;28;20034;-88
2020/12/09 03:50:54;;;;;;;71.15;35.85;;;3.60;95.70;;;;;;5034561;28;20028;-88
2020/12/09 03:53:21;;;;;;;69.65;35.20;;;3.50;95.70;;;;;;5018843;28;20479;-88
2020/12/09 03:55:47;;;;;;;74.07;34.95;;;3.50;95.60;;;;;;5022917;28;20554;-88
2020/12/09 03:58:13;;;;;;;75.65;35.15;;;3.50;95.60;;;;;;5035683;28;20021;-88
2020/12/09 04:00:39;;;;;;;64.90;33.85;;;3.50;95.60;;;;;;5035293;28;20045;-88
2020/12/09 04:03:04;;;;;;;69.82;32.25;;;3.40;95.50;;;;;;5033115;28;20079;-88
2020/12/09 04:05:30;;;;;;;63.05;31.08;;;3.30;95.50;;;;;;5030088;28;20030;-89
2020/12/09 04:07:55;;;;;;;60.95;31.38;;;3.30;95.50;;;;;;5028166;28;20104;-87
2020/12/09 04:10:21;;;;;;;63.33;31.55;;;3.30;95.50;;;;;;5027439;28;20034;-88
2020/12/09 04:12:46;;;;;;;61.78;32.90;;;3.10;95.50;;;;;;5030557;28;20072;-87
2020/12/09 04:15:12;;;;;;;68.30;33.10;;;3.10;95.50;;;;;;5026384;28;20525;-87
2020/12/09 04:17:38;;;;;;;68.38;33.65;;;3.00;95.50;;;;;;5023596;28;20096;-88
2020/12/09 04:20:05;;;;;;;67.93;32.97;;;2.90;95.50;;;;;;5041082;28;20119;-87
2020/12/09 04:22:30;;;;;;;72.03;33.03;;;2.90;95.50;;;;;;5039404;28;20032;-88
2020/12/09 04:24:56;;;;;;;70.53;33.13;;;2.80;95.50;;;;;;5042668;28;20025;-88
2020/12/09 04:27:21;;;;;;;63.88;31.52;;;2.70;95.40;;;;;;5031005;28;20025;-88
2020/12/09 04:29:47;;;;;;;67.53;31.30;;;2.50;95.40;;;;;;5032650;28;20048;-87
2020/12/09 04:32:13;;;;;;;76.07;33.05;;;2.50;95.40;;;;;;5034186;28;20674;-88
2020/12/09 04:34:38;;;;;;;64.70;30.08;;;2.30;95.40;;;;;;5034274;28;20036;-88
2020/12/09 04:37:04;;;;;;;69.53;32.72;;;2.30;95.40;;;;;;5030035;28;20033;-88
2020/12/09 04:39:30;;;;;;;63.78;30.88;;;2.10;95.50;;;;;;5030344;28;20372;-88
2020/12/09 04:41:56;;;;;;;66.03;31.17;;;2.00;95.50;;;;;;5031618;28;20045;-88
2020/12/09 04:44:23;;;;;;;68.07;30.95;;;2.00;95.50;;;;;;5029637;28;20148;-88
2020/12/09 04:46:51;;;;;;;70.95;32.30;;;1.90;95.60;;;;;;5026387;28;20025;-88
2020/12/09 04:49:22;;;;;;;75.60;32.28;;;1.80;95.70;;;;;;5032828;28;20065;-87
2020/12/09 04:52:14;;;;;;;69.47;32.83;;;1.70;95.70;;;;;;5030324;28;20014;-87
2020/12/09 04:54:42;;;;;;;75.55;32.47;;;1.70;95.80;;;;;;5028287;28;20034;-87
2020/12/09 04:57:20;;;;;;;77.78;33.83;;;1.60;95.80;;;;;;5015058;28;20022;-88
2020/12/09 04:59:58;;;;;;;73.45;33.08;;;1.50;95.80;;;;;;5030965;28;20071;-88
2020/12/09 05:02:33;;;;;;;63.50;28.05;;;1.50;95.80;;;;;;5030436;28;20037;-89
2020/12/09 05:05:00;;;;;;;71.28;32.10;;;1.40;95.70;;;;;;5019270;28;20033;-88
2020/12/09 05:07:35;;;;;;;78.82;34.35;;;1.30;95.80;;;;;;5032648;28;20030;-89
2020/12/09 05:10:06;;;;;;;63.72;30.20;;;1.30;95.80;;;;;;5023302;28;20030;-89
2020/12/09 05:12:44;;;;;;;65.80;28.73;;;1.20;95.90;;;;;;5018302;28;20044;-89
2020/12/09 05:15:18;;;;;;;67.25;29.50;;;1.20;95.90;;;;;;5030099;28;20091;-89
2020/12/09 05:18:06;;;;;;;67.20;30.65;;;1.10;95.90;;;;;;5031134;28;20026;-89
2020/12/09 05:20:34;;;;;;;71.75;32.50;;;1.10;96.00;;;;;;5023340;28;20030;-89
2020/12/09 05:23:01;;;;;;;73.82;32.28;;;1.00;96.00;;;;;;5031713;28;20029;-89
2020/12/09 05:25:28;;;;;;;66.40;29.13;;;1.00;96.10;;;;;;5034269;28;20538;-89
2020/12/09 05:27:55;;;;;;;74.70;32.47;;;1.00;96.10;;;;;;5031617;28;20445;-89
2020/12/09 05:30:47;;;;;;;73.80;30.73;;;1.00;96.10;;;;;;5026566;28;20026;-90
2020/12/09 05:33:29;;;;;;;80.10;30.88;;;1.00;96.30;;;;;;5023145;28;20074;-90
2020/12/09 05:35:56;;;;;;;163.60;34.03;;;1.10;96.30;;;;;;5020747;28;20324;-89
2020/12/09 05:38:22;;;;;;;124.07;31.48;;;1.10;96.30;;;;;;5026505;28;20025;-89
2020/12/09 05:40:47;;;;;;;116.93;26.52;;;1.10;96.30;;;;;;5018813;28;20091;-89
2020/12/09 05:43:15;;;;;;;121.78;29.00;;;1.20;96.20;;;;;;5017999;28;20736;-89
2020/12/09 05:45:41;;;;;;;223.40;31.55;;;1.10;96.30;;;;;;5023266;28;20035;-88
2020/12/09 05:48:15;;;;;;;159.90;31.48;;;1.10;95.90;;;;;;5018997;28;20034;-89
2020/12/09 05:50:52;;;;;;;100.53;29.25;;;1.00;95.90;;;;;;5020640;28;20481;-89
2020/12/09 05:53:20;;;;;;;122.75;28.50;;;1.00;96.00;;;;;;5026725;28;20021;-89
2020/12/09 05:55:46;;;;;;;118.95;27.45;;;1.00;96.00;;;;;;5023960;28;20473;-88
2020/12/09 05:58:26;;;;;;;106.38;27.23;;;1.00;95.90;;;;;;5019987;28;20026;-89
2020/12/09 06:01:09;;;;;;;100.47;27.88;;;0.90;95.80;;;;;;5022289;28;20501;-87
2020/12/09 06:03:43;;;;;;;88.47;26.77;;;0.90;95.90;;;;;;5019757;28;20482;-88
2020/12/09 06:06:24;;;;;;;194.90;29.95;;;0.90;95.90;;;;;;5024556;28;20112;-88
2020/12/09 06:08:51;;;;;;;104.72;26.85;;;0.90;95.90;;;;;;5031133;28;20025;-88
2020/12/09 06:11:19;;;;;;;121.95;28.73;;;0.80;95.90;;;;;;5032483;28;20028;-88
2020/12/09 06:13:45;;;;;;;146.52;29.20;;;0.80;95.80;;;;;;5031689;28;20029;-89
2020/12/09 06:16:12;;;;;;;105.22;29.35;;;0.80;95.90;;;;;;5031063;28;20402;-89
2020/12/09 06:18:43;;;;;;;204.18;32.33;;;0.80;95.90;;;;;;5031777;28;20022;-89
2020/12/09 06:21:08;;;;;;;123.38;28.00;;;0.80;95.90;;;;;;5033505;28;20033;-88
2020/12/09 06:23:34;;;;;;;112.63;26.98;;;0.80;95.80;;;;;;5025323;28;20117;-88
2020/12/09 06:26:01;;;;;;;189.00;29.75;;;0.70;95.70;;;;;;5028305;28;20026;-88
2020/12/09 06:28:29;;;;;;;113.95;26.48;;;0.70;95.70;;;;;;5024689;28;20374;-88
2020/12/09 06:30:57;;;;;;;156.55;31.63;;;0.60;95.70;;;;;;5028753;28;20022;-88
2020/12/09 06:33:40;;;;;;;132.15;27.65;;;0.60;95.80;;;;;;5031111;28;20037;-89
2020/12/09 06:36:10;;;;;;;144.88;29.02;;;0.70;95.80;;;;;;5027051;28;20043;-91
2020/12/09 06:38:36;;;;;;;135.57;30.98;;;0.60;95.80;;;;;;5024187;28;20022;-89
2020/12/09 06:41:05;;;;;;;110.03;27.52;;;0.60;95.70;;;;;;5026660;28;20071;-90
2020/12/09 06:43:31;;;;;;;162.90;27.90;;;0.60;95.70;;;;;;5023564;28;20042;-89
2020/12/09 06:45:57;;;;;;;183.00;32.10;;;0.60;95.80;;;;;;5025337;28;20075;-89
2020/12/09 06:48:24;;;;;;;113.63;32.47;;;0.60;95.80;;;;;;5029688;28;20022;-89
2020/12/09 06:50:52;;;;;;;157.98;32.90;;;0.60;95.80;;;;;;5020059;28;20481;-89
2020/12/09 06:53:22;;;;;;;141.48;30.50;;;0.60;95.80;;;;;;5027788;28;20022;-88
2020/12/09 06:55:51;;;;;;;125.32;32.00;;;0.60;95.70;;;;;;5030515;28;20095;-89
2020/12/09 06:58:28;;;;;;;115.10;30.33;;;0.60;95.70;;;;;;5031564;28;20052;-88
2020/12/09 07:01:00;;;;;;;159.45;34.67;;;0.60;95.80;;;;;;5035779;28;20486;-89
2020/12/09 07:03:28;;;;;;;165.18;36.47;;;0.60;95.80;;;;;;5031895;28;20469;-88
2020/12/09 07:05:53;;;;;;;132.18;32.42;;;0.70;95.70;;;;;;5031821;28;20029;-90
2020/12/09 07:08:19;;;;;;;145.63;31.90;;;0.60;95.70;;;;;;5032414;28;20022;-87
2020/12/09 07:10:45;;;;;;;130.93;32.20;;;0.60;95.70;;;;;;5031366;28;20028;-89
2020/12/09 07:13:13;;;;;;;153.30;34.42;;;0.60;95.70;;;;;;5023444;28;20139;-90
2020/12/09 07:15:50;;;;;;;142.75;35.13;;;0.60;95.90;;;;;;5028889;28;20095;-89
2020/12/09 07:18:16;;;;;;;166.65;35.72;;;0.60;95.70;;;;;;5023767;28;20032;-90
2020/12/09 07:20:42;;;;;;;108.60;33.03;;;0.60;95.60;;;;;;5028118;28;20501;-89
2020/12/09 07:23:08;;;;;;;126.30;33.47;;;0.50;95.70;;;;;;5029878;28;20037;-89
2020/12/09 07:25:34;;;;;;;213.18;39.00;;;0.50;95.70;;;;;;5029755;28;20064;-90
2020/12/09 07:28:01;;;;;;;96.13;32.53;;;0.50;95.70;;;;;;5027108;28;20514;-89
2020/12/09 07:30:27;;;;;;;112.15;35.38;;;0.50;95.70;;;;;;5031436;28;20041;-89
2020/12/09 07:32:54;;;;;;;108.25;33.78;;;0.50;95.70;;;;;;5035280;28;20021;-89
2020/12/09 07:35:20;;;;;;;118.93;37.15;;;0.50;95.70;;;;;;5034724;28;20040;-88
2020/12/09 07:37:51;;;;;;;109.13;32.50;;;0.50;95.70;;;;;;5028629;28;20025;-89
2020/12/09 07:40:30;;;;;;;147.73;34.75;;;0.50;95.70;;;;;;5032796;28;20033;-90
2020/12/09 07:43:10;;;;;;;126.05;31.73;;;0.40;95.50;;;;;;5033962;28;20026;-89
2020/12/09 07:45:38;;;;;;;148.63;36.00;;;0.40;95.50;;;;;;5031533;28;20025;-89
2020/12/09 07:48:07;;;;;;;96.78;33.50;;;0.30;95.60;;;;;;5031376;28;20029;-88
2020/12/09 07:50:33;;;;;;;100.88;33.35;;;0.30;95.70;;;;;;5029904;28;20087;-88
2020/12/09 07:52:58;;;;;;;112.05;33.33;;;0.30;95.70;;;;;;5033292;28;20081;-88
2020/12/09 07:55:26;;;;;;;112.00;36.90;;;0.30;95.70;;;;;;5031467;28;20572;-88
2020/12/09 07:58:01;;;;;;;103.18;31.17;;;0.40;95.70;;;;;;5033350;28;20041;-88
2020/12/09 08:00:34;;;;;;;131.52;36.03;;;0.40;95.70;;;;;;5032231;28;20037;-88
2020/12/09 08:02:59;;;;;;;;;;;0.30;95.60;;;;;;5033749;28;20556;-90
2020/12/09 08:05:26;;;;;;;93.97;30.70;;;0.30;95.70;;;;;;5034850;28;19913;-88
2020/12/09 08:07:58;;;;;;;98.97;32.55;;;0.30;95.70;;;;;;5031225;28;20053;-88
2020/12/09 08:10:30;;;;;;;85.35;34.55;;;0.30;95.70;;;;;;5017970;28;20542;-89
2020/12/09 08:13:02;;;;;;;102.28;33.53;;;0.40;95.70;;;;;;5024865;28;20033;-88
2020/12/09 08:15:28;;;;;;;88.93;33.38;;;0.40;95.70;;;;;;5025783;28;20041;-88
2020/12/09 08:17:53;;;;;;;113.70;34.15;;;0.40;95.70;;;;;;5037983;28;20048;-88
2020/12/09 08:20:19;;;;;;;135.45;35.65;;;0.50;95.70;;;;;;5030438;28;20022;-88
2020/12/09 08:22:59;;;;;;;94.43;34.78;;;0.50;95.70;;;;;;5030702;28;20029;-89
2020/12/09 08:25:27;;;;;;;103.75;35.58;;;0.40;95.60;;;;;;5038228;28;20196;-88
2020/12/09 08:27:54;;;;;;;95.85;34.63;;;0.40;95.60;;;;;;5037633;28;20029;-88
2020/12/09 08:30:21;;;;;;;103.30;34.55;;;0.50;95.60;;;;;;5033713;28;20028;-88
2020/12/09 08:33:12;;;;;;;98.63;35.25;;;0.50;95.70;;;;;;5024929;28;20034;-88
2020/12/09 08:35:57;;;;;;;99.65;34.92;;;0.60;95.70;;;;;;4999553;28;20054;-89
2020/12/09 08:38:31;;;;;;;119.13;35.00;;;0.60;95.70;;;;;;5027966;28;20029;-89
2020/12/09 08:40:58;;;;;;;93.97;34.72;;;0.60;95.60;;;;;;5030173;28;20022;-88
2020/12/09 08:43:25;;;;;;;101.20;36.28;;;0.50;95.60;;;;;;5021941;28;20049;-90
2020/12/09 08:45:52;;;;;;;98.35;34.38;;;0.60;95.60;;;;;;5023892;28;20028;-90
2020/12/09 08:48:19;;;;;;;105.95;37.70;;;0.60;95.60;;;;;;5034056;28;20025;-90
2020/12/09 08:50:48;;;;;;;105.25;36.35;;;0.60;95.60;;;;;;5033996;28;20028;-89
2020/12/09 08:53:15;;;;;;;95.35;36.33;;;0.60;95.60;;;;;;5016650;28;20034;-90
2020/12/09 08:55:42;;;;;;;112.63;37.78;;;0.60;95.60;;;;;;5028451;28;20034;-90
2020/12/09 08:58:10;;;;;;;127.05;37.58;;;0.60;95.90;;;;;;5026408;28;20049;-90
2020/12/09 09:00:37;;;;;;;101.10;33.90;;;0.70;95.60;;;;;;5022991;28;20025;-90
2020/12/09 09:03:04;;;;;;;119.18;36.85;;;0.70;95.60;;;;;;5034222;28;20065;-90
2020/12/09 09:05:29;;;;;;;120.32;37.70;;;0.70;95.60;;;;;;5034033;28;20116;-89
2020/12/09 09:07:55;;;;;;;152.05;37.05;;;0.70;95.60;;;;;;5039569;28;20517;-91
2020/12/09 09:10:20;;;;;;;101.22;32.80;;;0.70;95.50;;;;;;5032648;28;20028;-91
2020/12/09 09:12:46;;;;;;;88.80;33.83;;;0.70;95.50;;;;;;5033288;28;20036;-88
2020/12/09 09:15:11;;;;;;;85.55;31.58;;;0.70;95.60;;;;;;5026054;28;20041;-88
2020/12/09 09:17:37;;;;;;;102.53;32.88;;;0.70;95.60;;;;;;5031295;28;20061;-89
2020/12/09 09:20:05;;;;;;;93.63;34.20;;;0.70;95.50;;;;;;5041224;28;20034;-88
2020/12/09 09:22:31;;;;;;;128.77;38.75;;;0.60;95.40;;;;;;5040274;28;20051;-89
2020/12/09 09:24:57;;;;;;;117.50;34.65;;;0.60;95.40;;;;;;5030513;28;20109;-91
2020/12/09 09:27:22;;;;;;;111.25;34.00;;;0.50;95.40;;;;;;5019345;28;20508;-90
2020/12/09 09:29:48;;;;;;;121.20;34.03;;;0.50;95.40;;;;;;5032817;28;20033;-89
2020/12/09 09:32:14;;;;;;;110.97;33.70;;;0.40;95.40;;;;;;5028962;28;20022;-88
2020/12/09 09:34:39;;;;;;;108.32;35.33;;;0.40;95.50;;;;;;5019318;28;20025;-88
2020/12/09 09:37:09;;;;;;;109.20;34.42;;;0.40;95.50;;;;;;5018551;28;20030;-88
2020/12/09 09:39:36;;;;;;;118.60;37.58;;;0.40;95.50;;;;;;5033401;28;20029;-89
2020/12/09 09:42:05;;;;;;;106.22;38.83;;;0.40;95.60;;;;;;5030998;28;20037;-89
2020/12/09 09:44:31;;;;;;;106.03;36.38;;;0.50;95.60;;;;;;5052234;28;20045;-89
2020/12/09 09:46:58;;;;;;;99.93;33.35;;;0.40;95.60;;;;;;5038318;28;20432;-89
2020/12/09 09:49:24;;;;;;;86.55;30.45;;;0.50;95.60;;;;;;5032651;28;20053;-89
2020/12/09 09:51:51;;;;;;;102.50;35.80;;;0.50;95.60;;;;;;5036581;28;20036;-90
2020/12/09 09:54:17;;;;;;;94.32;32.30;;;0.50;95.50;;;;;;5041878;28;20029;-90
2020/12/09 09:56:42;;;;;;;144.40;37.78;;;0.50;95.90;;;;;;5028106;28;20033;-90
2020/12/09 09:59:08;;;;;;;122.93;35.65;;;0.60;95.60;;;;;;5027848;28;20029;-90
2020/12/09 10:01:33;;;;;;;110.32;35.63;;;0.60;95.50;;;;;;5022253;28;20026;-90
2020/12/09 10:03:59;;;;;;;127.68;35.92;;;0.70;95.60;;;;;;5029196;28;20033;-90
2020/12/09 10:06:25;;;;;;;111.57;35.35;;;0.70;95.60;;;;;;5017378;28;20025;-90
2020/12/09 10:08:51;;;;;;;103.10;31.10;;;0.70;95.60;;;;;;5032746;28;20028;-91
2020/12/09 10:11:17;;;;;;;100.28;33.15;;;0.80;95.60;;;;;;5035727;28;20458;-89
2020/12/09 10:13:42;;;;;;;116.85;33.55;;;0.80;95.60;;;;;;5031003;28;20018;-89
2020/12/09 10:16:08;;;;;;;103.65;32.22;;;0.90;95.50;;;;;;5029006;28;20037;-90
2020/12/09 10:18:34;;;;;;;117.60;33.92;;;0.80;95.50;;;;;;5018463;28;20053;-90
2020/12/09 10:20:59;;;;;;;126.32;32.30;;;0.80;95.40;;;;;;5032226;28;20459;-90
2020/12/09 10:23:25;;;;;;;121.65;34.53;;;0.80;95.40;;;;;;5023873;28;20026;-90
2020/12/09 10:25:50;;;;;;;122.25;37.22;;;0.90;95.50;;;;;;5032288;28;20048;-90
2020/12/09 10:28:16;;;;;;;215.70;39.60;;;0.90;95.60;;;;;;5029951;28;20026;-89
2020/12/09 10:30:45;;;;;;;144.40;37.65;;;1.00;95.60;;;;;;5032615;28;20420;-90
2020/12/09 10:33:12;;;;;;;122.03;33.90;;;1.00;95.50;;;;;;5039058;28;20448;-90
2020/12/09 10:35:39;;;;;;;158.60;39.25;;;1.10;95.50;;;;;;5040346;28;20402;-89
2020/12/09 10:38:05;;;;;;;131.13;36.70;;;1.00;95.40;;;;;;5032551;28;20067;-89
2020/12/09 10:40:31;;;;;;;139.68;35.97;;;1.00;95.50;;;;;;5029121;28;20049;-90
2020/12/09 10:42:56;;;;;;;138.73;36.85;;;1.10;95.50;;;;;;5032406;28;20469;-90
2020/12/09 10:45:22;;;;;;;186.60;45.25;;;1.10;95.50;;;;;;5032222;28;20486;-89
2020/12/09 10:47:47;;;;;;;144.85;41.03;;;1.10;95.50;;;;;;5031975;28;20397;-90
2020/12/09 10:50:13;;;;;;;152.13;40.88;;;1.10;95.50;;;;;;5029618;28;20063;-90
2020/12/09 10:52:38;;;;;;;146.30;39.05;;;1.20;95.50;;;;;;5035335;28;20032;-89
2020/12/09 10:55:04;;;;;;;152.93;42.13;;;1.20;95.50;;;;;;5026639;28;20033;-88
2020/12/09 10:57:30;;;;;;;138.23;36.88;;;1.20;95.50;;;;;;5023083;28;20029;-89
2020/12/09 10:59:56;;;;;;;153.32;42.70;;;1.20;95.50;;;;;;5029168;28;20521;-90
2020/12/09 11:02:21;;;;;;;140.05;39.90;;;1.30;95.60;;;;;;5029165;28;20398;-89
2020/12/09 11:04:47;;;;;;;139.70;39.83;;;1.30;95.60;;;;;;5032199;28;20033;-89
2020/12/09 11:07:12;;;;;;;136.25;39.88;;;1.30;95.60;;;;;;5034633;28;20013;-89
2020/12/09 11:09:40;;;;;;;136.85;38.90;;;1.40;95.60;;;;;;5036188;28;20105;-88
2020/12/09 11:12:05;;;;;;;138.25;41.60;;;1.40;95.60;;;;;;5036193;28;20505;-89
2020/12/09 11:14:34;;;;;;;130.13;40.28;;;1.50;95.60;;;;;;5035914;28;20033;-87
2020/12/09 11:17:00;;;;;;;131.95;40.38;;;1.50;95.50;;;;;;5036230;28;20021;-88
2020/12/09 11:19:26;;;;;;;136.13;41.05;;;1.60;95.60;;;;;;5033851;28;20033;-88
2020/12/09 11:21:51;;;;;;;150.20;41.83;;;1.60;95.50;;;;;;5021674;28;20021;-88
2020/12/09 11:24:18;;;;;;;159.27;44.03;;;1.60;95.50;;;;;;5033703;28;20113;-90
2020/12/09 11:26:44;;;;;;;153.13;46.67;;;1.60;95.40;;;;;;5036754;28;20185;-90
2020/12/09 11:29:10;;;;;;;122.00;39.15;;;1.60;95.40;;;;;;5036377;28;20041;-89
2020/12/09 11:31:38;;;;;;;101.72;33.38;;;1.60;95.50;;;;;;5034382;28;20022;-89
2020/12/09 11:34:06;;;;;;;103.05;32.85;;;1.60;95.50;;;;;;5035530;28;20060;-89
2020/12/09 11:36:32;;;;;;;106.57;32.58;;;1.60;95.40;;;;;;5034944;28;20029;-90
2020/12/09 11:38:58;;;;;;;113.45;36.40;;;1.60;95.40;;;;;;5035574;28;20025;-89
2020/12/09 11:41:28;;;;;;;113.35;37.00;;;1.60;95.40;;;;;;5035246;28;20047;-89
2020/12/09 11:43:55;;;;;;;120.47;36.58;;;1.60;95.30;;;;;;5033604;28;20056;-88
2020/12/09 11:46:22;;;;;;;109.28;35.67;;;1.60;95.40;;;;;;5035447;28;20030;-90
2020/12/09 11:48:48;;;;;;;114.28;37.00;;;1.60;95.30;;;;;;5028634;28;20018;-89
2020/12/09 11:51:14;;;;;;;125.45;39.20;;;1.60;95.30;;;;;;5033910;28;20028;-89
2020/12/09 11:53:43;;;;;;;136.18;43.17;;;1.70;95.30;;;;;;5040169;28;20104;-89
2020/12/09 11:56:09;;;;;;;131.40;39.70;;;1.60;95.20;;;;;;5029429;28;20033;-87
2020/12/09 11:58:35;;;;;;;146.82;43.42;;;1.60;95.30;;;;;;5035917;28;20109;-89
2020/12/09 12:01:05;;;;;;;119.25;36.40;;;1.60;95.30;;;;;;5032290;28;20124;-90
2020/12/09 12:03:30;;;;;;;124.68;40.15;;;1.70;95.40;;;;;;5035143;28;20445;-89
2020/12/09 12:05:56;;;;;;;115.15;37.08;;;1.80;95.40;;;;;;5033765;28;20116;-90
2020/12/09 12:08:21;;;;;;;102.15;36.58;;;1.80;95.30;;;;;;5034509;28;20029;-89
2020/12/09 12:10:46;;;;;;;97.38;34.30;;;1.80;95.10;;;;;;5036079;28;20022;-89
2020/12/09 12:13:13;;;;;;;97.15;35.13;;;1.80;95.10;;;;;;5034363;28;20060;-89
2020/12/09 12:15:39;;;;;;;104.80;37.53;;;1.80;95.10;;;;;;5035841;28;20030;-89
2020/12/09 12:18:04;;;;;;;106.07;37.03;;;1.80;95.10;;;;;;5033701;28;20112;-89
2020/12/09 12:20:30;;;;;;;109.88;38.63;;;1.80;95.10;;;;;;5035924;28;20030;-89
2020/12/09 12:22:56;;;;;;;121.90;41.17;;;1.80;95.00;;;;;;5034353;28;20081;-88
2020/12/09 12:25:22;;;;;;;119.65;40.30;;;1.80;95.00;;;;;;5034492;28;20078;-89
2020/12/09 12:27:47;;;;;;;122.38;43.45;;;1.90;95.00;;;;;;5034687;28;20060;-89
2020/12/09 12:30:13;;;;;;;120.75;41.90;;;1.90;95.10;;;;;;5046249;28;20057;-89
2020/12/09 12:32:39;;;;;;;138.15;46.42;;;1.90;95.00;;;;;;5035785;28;20367;-90
2020/12/09 12:35:08;;;;;;;147.27;48.47;;;2.00;95.00;;;;;;5033895;28;20049;-90